Terminal Aerodrome Forecast
Issued by NWS Memphis, TN

Home | Current Version | Previous Version | Text Only | Print | Product List | Glossary On
Versions: 1 2 3 4 5 6 7 8 9 10 11 12
000
FTUS44 KMEG 302320
TAFJBR
TAF
KJBR 302320Z 0100/0124 27006KT P6SM VCSH SKC
     FM010100 22006KT P6SM FEW050 SCT250
     FM011300 23008KT P6SM VCTS SCT040CB BKN100
      TEMPO 0114/0118 5SM SHRA SCT020 OVC040
     FM011800 22008KT P6SM VCTS SCT020 BKN040CB=

USA.gov is the U.S. government's official web portal to all federal, state and local government web resources and services.